Penn Valley, CA (95946)

9:26 AM PDT on August 30, 2014 (GMT -0700)
Lake Wildwood | Change Station
CLOSE
Current Station
Personal Weather Station
Location: Penn Valley, CA
Elevation: 1512 ft
Nearby Weather Stations

Elev 1512 ft 39.23 °N, 121.19 °W | Updated 5 seconds ago

Clear
Clear
76.5 °F
Feels Like 78 °F
N
0.2
Wind Variable Wind from West

Today
High -- | Low -- °F
--% Chance of Precip.
Yesterday
High -- | Low -- °F
Precip. -- in
6:31 AM 7:38 PM
Waxing Crescent, 23% visible
Pressure 30.01 in
Visibility 10.0 miles
Clouds Clear
Heat Index 78 °F
Dew Point 50 °F
Humidity 40%
Rainfall 0.00 in
Snow Depth Not available.
UV 3 out of 12
Pollen 9.20 out of 12
Ozone Moderate
Flu Activity Not available.
METAR KGOO 301620Z AUTO 17005KT 10SM CLR 23/05 A3001 RMK AO1

More Conditions Fewer Conditions

Pressure 30.01 in
Visibility 10.0 miles
Clouds Clear
Heat Index 78 °F
Dew Point 50 °F
Humidity 40%
Rainfall 0.00 in
Snow Depth Not available.
UV 3 out of 12
Pollen 9.20 out of 12
Ozone Moderate
Flu Activity Not available.
METAR KGOO 301620Z AUTO 17005KT 10SM CLR 23/05 A3001 RMK AO1

More Conditions Fewer Conditions

10-Day Weather Forecast

Almanac

Astronomy

Aug. 30, 2014 Rise Set
Actual Time 6:31 AM PDT 7:38 PM PDT
Civil Twilight 6:04 AM PDT 8:05 PM PDT
Nautical Twilight 5:31 AM PDT 8:38 PM PDT
Astronomical Twilight 4:56 AM PDT 9:12 PM PDT
Moon 11:22 AM PDT 10:18 PM PDT
Length of Visible Light 14h 01m
Length of Day
13h 06m
Tomorrow will be 2m 27s shorter.
Waxing Crescent, 23% of the Moon is Illuminated
Today
Waxing Crescent
Sep 2
First Quarter
Sep 8
Full
Sep 15
Last Quarter
Sep 24
New

Today's Extremes

State Highs State Lows

Community

WunderPhotos

Upload Photos

1,748,556 photos uploaded!

WunderBlogs® & News

Nearby

Air Quality

  Air Quality AQ Index Pollutant
Yesterday Moderate
OZONE
Current Moderate
OZONE
Saturday Moderate
OZONE
Sunday Moderate
OZONE
Monday Moderate
OZONE
Tuesday Moderate
OZONE
Wednesday Moderate
OZONE

Snow Depth

Station Depth Elevation
CSS Lab 4 in 6900 ft
Tahoe City Cross 0 in 6750 ft
Echo Peak 0 in 7800 ft
Hagan's Meadow 0 in 8000 ft
Forestdale Creek 0 in 8029 ft

Earthquake Activity

City Distance Mag. Time & Date
The Geysers, California 91 miles 2.7 2:53 PM PDT
2014-08-29
Minimum magnitude displayed is 2.5.

Coastal Water Temperatures

Place Temperature
No Stations Reporting

Nearby Weather Stations